Airport View

Enter AWOS ICAO identifier for current METAR.

ex. KFNL

KATS 210045Z AUTO 15008KT 10SM CLR 31/16 A2989 RMK AO2

21 Sep 2019 00:48

Frequency: 126.725

Phone: 575-748-2103

Other Area AWOS: KROW - KCNM - KGDP - KHOB

TAF KROW 202335Z 2100/2124 14006KT P6SM FEW090 FM210200 16007KT P6SM FEW120 FM210800 17007KT P6SM BKN120 FM211100 21005KT P6SM BKN050 BKN100